sensor_id;sensor_type;location;lat;lon;timestamp;P1;durP1;ratioP1;P2;durP2;ratioP2
55684;SDS011;41883;49.544;8.646;2022-08-03T00:00:43;2.00;;;1.20;;
55684;SDS011;41883;49.544;8.646;2022-08-03T00:03:09;2.90;;;1.38;;
55684;SDS011;41883;49.544;8.646;2022-08-03T00:05:37;2.20;;;1.38;;
55684;SDS011;41883;49.544;8.646;2022-08-03T00:08:03;2.03;;;1.30;;
55684;SDS011;41883;49.544;8.646;2022-08-03T00:10:29;2.40;;;1.30;;
55684;SDS011;41883;49.544;8.646;2022-08-03T00:12:55;1.70;;;1.20;;
55684;SDS011;41883;49.544;8.646;2022-08-03T00:15:21;1.70;;;1.30;;
55684;SDS011;41883;49.544;8.646;2022-08-03T00:17:47;1.80;;;1.30;;
55684;SDS011;41883;49.544;8.646;2022-08-03T00:20:15;1.55;;;1.20;;
55684;SDS011;41883;49.544;8.646;2022-08-03T00:22:41;1.75;;;1.15;;
55684;SDS011;41883;49.544;8.646;2022-08-03T00:25:07;1.88;;;1.10;;
55684;SDS011;41883;49.544;8.646;2022-08-03T00:27:33;2.08;;;1.40;;
55684;SDS011;41883;49.544;8.646;2022-08-03T00:29:59;1.60;;;1.10;;
55684;SDS011;41883;49.544;8.646;2022-08-03T00:32:26;1.85;;;1.33;;
55684;SDS011;41883;49.544;8.646;2022-08-03T00:34:53;1.77;;;1.40;;
55684;SDS011;41883;49.544;8.646;2022-08-03T00:37:20;1.70;;;1.25;;
55684;SDS011;41883;49.544;8.646;2022-08-03T00:39:46;1.58;;;1.17;;
55684;SDS011;41883;49.544;8.646;2022-08-03T00:42:13;3.22;;;1.40;;
55684;SDS011;41883;49.544;8.646;2022-08-03T00:44:40;1.85;;;1.20;;
55684;SDS011;41883;49.544;8.646;2022-08-03T00:47:07;2.50;;;1.50;;
55684;SDS011;41883;49.544;8.646;2022-08-03T00:49:35;1.30;;;1.10;;
55684;SDS011;41883;49.544;8.646;2022-08-03T00:52:02;2.28;;;1.25;;
55684;SDS011;41883;49.544;8.646;2022-08-03T00:54:28;1.98;;;1.33;;
55684;SDS011;41883;49.544;8.646;2022-08-03T00:56:54;2.22;;;1.20;;
55684;SDS011;41883;49.544;8.646;2022-08-03T00:59:21;2.28;;;1.42;;
55684;SDS011;41883;49.544;8.646;2022-08-03T01:01:47;1.38;;;1.10;;
55684;SDS011;41883;49.544;8.646;2022-08-03T01:04:13;2.35;;;1.25;;
55684;SDS011;41883;49.544;8.646;2022-08-03T01:06:49;1.80;;;1.20;;
55684;SDS011;41883;49.544;8.646;2022-08-03T01:09:41;1.70;;;1.20;;
55684;SDS011;41883;49.544;8.646;2022-08-03T01:20:46;41.00;;;14.33;;
55684;SDS011;41883;49.544;8.646;2022-08-03T01:23:22;30.65;;;11.57;;
55684;SDS011;41883;49.544;8.646;2022-08-03T01:31:17;4.63;;;2.20;;
55684;SDS011;41883;49.544;8.646;2022-08-03T01:33:49;2.78;;;1.73;;
55684;SDS011;41883;49.544;8.646;2022-08-03T01:36:23;3.13;;;1.48;;
55684;SDS011;41883;49.544;8.646;2022-08-03T01:38:54;3.65;;;2.05;;
55684;SDS011;41883;49.544;8.646;2022-08-03T01:41:28;11.77;;;5.07;;
55684;SDS011;41883;49.544;8.646;2022-08-03T01:44:00;13.65;;;5.50;;
55684;SDS011;41883;49.544;8.646;2022-08-03T01:46:30;11.27;;;4.88;;
55684;SDS011;41883;49.544;8.646;2022-08-03T01:48:57;9.38;;;3.92;;
55684;SDS011;41883;49.544;8.646;2022-08-03T01:51:25;12.77;;;5.18;;
55684;SDS011;41883;49.544;8.646;2022-08-03T01:53:53;13.57;;;5.72;;
55684;SDS011;41883;49.544;8.646;2022-08-03T01:56:21;14.25;;;5.55;;
55684;SDS011;41883;49.544;8.646;2022-08-03T01:58:53;10.23;;;4.25;;
55684;SDS011;41883;49.544;8.646;2022-08-03T02:01:22;8.75;;;3.20;;
55684;SDS011;41883;49.544;8.646;2022-08-03T02:03:49;4.70;;;2.40;;
55684;SDS011;41883;49.544;8.646;2022-08-03T02:06:17;4.72;;;2.53;;
55684;SDS011;41883;49.544;8.646;2022-08-03T02:08:46;13.10;;;6.43;;
55684;SDS011;41883;49.544;8.646;2022-08-03T02:11:15;13.68;;;6.05;;
55684;SDS011;41883;49.544;8.646;2022-08-03T02:13:42;16.92;;;7.00;;
55684;SDS011;41883;49.544;8.646;2022-08-03T02:16:13;16.08;;;6.47;;
55684;SDS011;41883;49.544;8.646;2022-08-03T02:18:41;16.38;;;6.65;;
55684;SDS011;41883;49.544;8.646;2022-08-03T02:21:08;13.82;;;5.68;;
55684;SDS011;41883;49.544;8.646;2022-08-03T02:23:36;7.15;;;3.25;;
55684;SDS011;41883;49.544;8.646;2022-08-03T02:26:03;5.15;;;2.40;;
55684;SDS011;41883;49.544;8.646;2022-08-03T02:28:36;2.50;;;1.70;;
55684;SDS011;41883;49.544;8.646;2022-08-03T02:31:07;2.28;;;1.58;;
55684;SDS011;41883;49.544;8.646;2022-08-03T02:33:40;2.67;;;1.55;;
55684;SDS011;41883;49.544;8.646;2022-08-03T02:36:08;2.45;;;1.35;;
55684;SDS011;41883;49.544;8.646;2022-08-03T02:38:39;2.47;;;1.40;;
55684;SDS011;41883;49.544;8.646;2022-08-03T02:41:08;2.00;;;1.33;;
55684;SDS011;41883;49.544;8.646;2022-08-03T02:43:40;2.00;;;1.30;;
55684;SDS011;41883;49.544;8.646;2022-08-03T02:46:10;1.65;;;1.13;;
55684;SDS011;41883;49.544;8.646;2022-08-03T02:48:42;2.17;;;1.20;;
55684;SDS011;41883;49.544;8.646;2022-08-03T02:51:10;1.77;;;1.10;;
55684;SDS011;41883;49.544;8.646;2022-08-03T02:53:37;1.30;;;1.00;;
55684;SDS011;41883;49.544;8.646;2022-08-03T02:56:04;1.90;;;1.00;;
55684;SDS011;41883;49.544;8.646;2022-08-03T02:58:33;1.55;;;1.08;;
55684;SDS011;41883;49.544;8.646;2022-08-03T03:01:00;1.27;;;1.00;;
55684;SDS011;41883;49.544;8.646;2022-08-03T03:03:27;1.27;;;0.90;;
55684;SDS011;41883;49.544;8.646;2022-08-03T03:05:54;1.70;;;1.10;;
55684;SDS011;41883;49.544;8.646;2022-08-03T03:08:23;1.88;;;1.10;;
55684;SDS011;41883;49.544;8.646;2022-08-03T03:10:51;2.33;;;1.00;;
55684;SDS011;41883;49.544;8.646;2022-08-03T03:13:19;2.20;;;1.17;;
55684;SDS011;41883;49.544;8.646;2022-08-03T03:15:46;2.35;;;1.00;;
55684;SDS011;41883;49.544;8.646;2022-08-03T03:18:14;1.90;;;0.90;;
55684;SDS011;41883;49.544;8.646;2022-08-03T03:20:41;1.30;;;0.90;;
55684;SDS011;41883;49.544;8.646;2022-08-03T03:23:09;1.83;;;1.15;;
55684;SDS011;41883;49.544;8.646;2022-08-03T03:25:37;1.35;;;1.00;;
55684;SDS011;41883;49.544;8.646;2022-08-03T03:28:04;1.90;;;1.10;;
55684;SDS011;41883;49.544;8.646;2022-08-03T03:30:30;1.58;;;1.02;;
55684;SDS011;41883;49.544;8.646;2022-08-03T03:32:56;2.55;;;1.05;;
55684;SDS011;41883;49.544;8.646;2022-08-03T03:35:23;1.90;;;1.08;;
55684;SDS011;41883;49.544;8.646;2022-08-03T03:37:49;1.40;;;1.10;;
55684;SDS011;41883;49.544;8.646;2022-08-03T03:40:16;1.70;;;1.27;;
55684;SDS011;41883;49.544;8.646;2022-08-03T03:42:43;1.63;;;1.20;;
55684;SDS011;41883;49.544;8.646;2022-08-03T03:45:10;1.67;;;1.20;;
55684;SDS011;41883;49.544;8.646;2022-08-03T03:47:38;2.50;;;1.30;;
55684;SDS011;41883;49.544;8.646;2022-08-03T03:50:04;1.63;;;1.30;;
55684;SDS011;41883;49.544;8.646;2022-08-03T03:52:32;1.60;;;1.20;;
55684;SDS011;41883;49.544;8.646;2022-08-03T03:54:58;2.13;;;1.30;;
55684;SDS011;41883;49.544;8.646;2022-08-03T03:57:24;2.05;;;1.40;;
55684;SDS011;41883;49.544;8.646;2022-08-03T03:59:50;2.13;;;1.40;;
55684;SDS011;41883;49.544;8.646;2022-08-03T04:02:16;1.75;;;1.25;;
55684;SDS011;41883;49.544;8.646;2022-08-03T04:04:43;2.10;;;1.50;;
55684;SDS011;41883;49.544;8.646;2022-08-03T04:07:27;2.35;;;1.38;;
55684;SDS011;41883;49.544;8.646;2022-08-03T04:10:20;1.85;;;1.40;;
55684;SDS011;41883;49.544;8.646;2022-08-03T04:13:08;2.38;;;1.42;;
55684;SDS011;41883;49.544;8.646;2022-08-03T04:15:37;2.00;;;1.40;;
55684;SDS011;41883;49.544;8.646;2022-08-03T04:18:04;1.67;;;1.40;;
55684;SDS011;41883;49.544;8.646;2022-08-03T04:20:33;1.58;;;1.30;;
55684;SDS011;41883;49.544;8.646;2022-08-03T04:23:01;2.13;;;1.30;;
55684;SDS011;41883;49.544;8.646;2022-08-03T04:25:29;2.17;;;1.40;;
55684;SDS011;41883;49.544;8.646;2022-08-03T04:28:01;2.20;;;1.60;;
55684;SDS011;41883;49.544;8.646;2022-08-03T04:30:30;2.22;;;1.50;;
55684;SDS011;41883;49.544;8.646;2022-08-03T04:32:57;1.77;;;1.33;;
55684;SDS011;41883;49.544;8.646;2022-08-03T04:35:28;1.98;;;1.52;;
55684;SDS011;41883;49.544;8.646;2022-08-03T04:38:00;2.58;;;1.30;;
55684;SDS011;41883;49.544;8.646;2022-08-03T04:40:34;1.70;;;1.30;;
55684;SDS011;41883;49.544;8.646;2022-08-03T04:43:04;1.75;;;1.15;;
55684;SDS011;41883;49.544;8.646;2022-08-03T04:45:32;2.40;;;1.40;;
55684;SDS011;41883;49.544;8.646;2022-08-03T04:47:59;2.58;;;1.50;;
55684;SDS011;41883;49.544;8.646;2022-08-03T04:50:26;2.20;;;1.65;;
55684;SDS011;41883;49.544;8.646;2022-08-03T04:52:53;2.33;;;1.60;;
55684;SDS011;41883;49.544;8.646;2022-08-03T04:57:53;1.80;;;1.23;;
55684;SDS011;41883;49.544;8.646;2022-08-03T05:00:23;2.28;;;1.30;;
55684;SDS011;41883;49.544;8.646;2022-08-03T05:02:50;1.70;;;1.42;;
55684;SDS011;41883;49.544;8.646;2022-08-03T05:05:22;1.52;;;1.30;;
55684;SDS011;41883;49.544;8.646;2022-08-03T05:07:48;1.92;;;1.45;;
55684;SDS011;41883;49.544;8.646;2022-08-03T05:10:14;1.83;;;1.40;;
55684;SDS011;41883;49.544;8.646;2022-08-03T05:12:42;2.70;;;1.38;;
55684;SDS011;41883;49.544;8.646;2022-08-03T05:15:09;3.78;;;1.65;;
55684;SDS011;41883;49.544;8.646;2022-08-03T05:17:36;2.00;;;1.45;;
55684;SDS011;41883;49.544;8.646;2022-08-03T05:20:03;2.45;;;1.50;;
55684;SDS011;41883;49.544;8.646;2022-08-03T05:22:30;2.42;;;1.50;;
55684;SDS011;41883;49.544;8.646;2022-08-03T05:24:56;2.28;;;1.40;;
55684;SDS011;41883;49.544;8.646;2022-08-03T05:27:22;2.10;;;1.58;;
55684;SDS011;41883;49.544;8.646;2022-08-03T05:29:49;1.77;;;1.23;;
55684;SDS011;41883;49.544;8.646;2022-08-03T05:32:16;3.22;;;1.40;;
55684;SDS011;41883;49.544;8.646;2022-08-03T05:34:42;1.88;;;1.38;;
55684;SDS011;41883;49.544;8.646;2022-08-03T05:37:09;2.33;;;1.60;;
55684;SDS011;41883;49.544;8.646;2022-08-03T05:39:35;1.60;;;1.20;;
55684;SDS011;41883;49.544;8.646;2022-08-03T05:42:02;2.15;;;1.23;;
55684;SDS011;41883;49.544;8.646;2022-08-03T05:44:28;1.60;;;1.17;;
55684;SDS011;41883;49.544;8.646;2022-08-03T05:46:55;1.63;;;1.23;;
55684;SDS011;41883;49.544;8.646;2022-08-03T05:49:21;2.28;;;1.33;;
55684;SDS011;41883;49.544;8.646;2022-08-03T05:51:48;2.10;;;1.23;;
55684;SDS011;41883;49.544;8.646;2022-08-03T05:54:14;1.98;;;0.98;;
55684;SDS011;41883;49.544;8.646;2022-08-03T05:56:42;1.30;;;1.00;;
55684;SDS011;41883;49.544;8.646;2022-08-03T05:59:08;1.55;;;1.20;;
55684;SDS011;41883;49.544;8.646;2022-08-03T06:06:25;1.80;;;1.23;;
55684;SDS011;41883;49.544;8.646;2022-08-03T06:08:51;1.77;;;1.00;;
55684;SDS011;41883;49.544;8.646;2022-08-03T06:18:41;2.17;;;1.38;;
55684;SDS011;41883;49.544;8.646;2022-08-03T06:21:07;2.25;;;0.98;;
55684;SDS011;41883;49.544;8.646;2022-08-03T06:23:34;1.88;;;1.02;;
55684;SDS011;41883;49.544;8.646;2022-08-03T06:26:03;1.60;;;1.15;;
55684;SDS011;41883;49.544;8.646;2022-08-03T06:28:30;1.95;;;1.17;;
55684;SDS011;41883;49.544;8.646;2022-08-03T06:30:59;1.80;;;1.23;;
55684;SDS011;41883;49.544;8.646;2022-08-03T06:33:25;2.83;;;1.13;;
55684;SDS011;41883;49.544;8.646;2022-08-03T06:35:53;2.05;;;1.25;;
55684;SDS011;41883;49.544;8.646;2022-08-03T06:38:20;3.47;;;1.23;;
55684;SDS011;41883;49.544;8.646;2022-08-03T06:40:46;1.55;;;1.00;;
55684;SDS011;41883;49.544;8.646;2022-08-03T06:43:12;1.90;;;0.90;;
55684;SDS011;41883;49.544;8.646;2022-08-03T06:45:39;2.30;;;1.17;;
55684;SDS011;41883;49.544;8.646;2022-08-03T06:48:09;2.15;;;1.20;;
55684;SDS011;41883;49.544;8.646;2022-08-03T06:50:37;2.15;;;1.20;;
55684;SDS011;41883;49.544;8.646;2022-08-03T06:53:05;1.30;;;0.90;;
55684;SDS011;41883;49.544;8.646;2022-08-03T06:55:33;1.25;;;0.88;;
55684;SDS011;41883;49.544;8.646;2022-08-03T06:57:59;1.02;;;0.90;;
55684;SDS011;41883;49.544;8.646;2022-08-03T07:00:26;1.58;;;0.90;;
55684;SDS011;41883;49.544;8.646;2022-08-03T07:02:52;2.85;;;1.50;;
55684;SDS011;41883;49.544;8.646;2022-08-03T07:05:19;1.70;;;1.00;;
55684;SDS011;41883;49.544;8.646;2022-08-03T07:07:46;1.38;;;0.93;;
55684;SDS011;41883;49.544;8.646;2022-08-03T07:10:13;1.98;;;1.00;;
55684;SDS011;41883;49.544;8.646;2022-08-03T07:12:39;1.77;;;0.95;;
55684;SDS011;41883;49.544;8.646;2022-08-03T07:15:06;2.85;;;1.10;;
55684;SDS011;41883;49.544;8.646;2022-08-03T07:17:33;2.00;;;1.35;;
55684;SDS011;41883;49.544;8.646;2022-08-03T07:20:02;3.47;;;1.20;;
55684;SDS011;41883;49.544;8.646;2022-08-03T07:22:30;1.60;;;1.00;;
55684;SDS011;41883;49.544;8.646;2022-08-03T07:24:57;2.63;;;1.00;;
55684;SDS011;41883;49.544;8.646;2022-08-03T07:27:23;1.73;;;0.98;;
55684;SDS011;41883;49.544;8.646;2022-08-03T07:29:51;2.17;;;1.10;;
55684;SDS011;41883;49.544;8.646;2022-08-03T07:32:17;1.30;;;1.00;;
55684;SDS011;41883;49.544;8.646;2022-08-03T07:34:43;1.60;;;1.10;;
55684;SDS011;41883;49.544;8.646;2022-08-03T07:37:09;2.00;;;1.00;;
55684;SDS011;41883;49.544;8.646;2022-08-03T07:39:35;2.33;;;1.00;;
55684;SDS011;41883;49.544;8.646;2022-08-03T07:42:03;1.77;;;1.02;;
55684;SDS011;41883;49.544;8.646;2022-08-03T07:44:30;1.38;;;1.00;;
55684;SDS011;41883;49.544;8.646;2022-08-03T07:46:56;1.38;;;0.85;;
55684;SDS011;41883;49.544;8.646;2022-08-03T07:49:21;2.47;;;1.00;;
55684;SDS011;41883;49.544;8.646;2022-08-03T07:51:47;1.75;;;1.00;;
55684;SDS011;41883;49.544;8.646;2022-08-03T07:54:33;2.05;;;1.00;;
55684;SDS011;41883;49.544;8.646;2022-08-03T07:56:59;1.88;;;1.00;;
55684;SDS011;41883;49.544;8.646;2022-08-03T07:59:27;2.53;;;1.30;;
55684;SDS011;41883;49.544;8.646;2022-08-03T08:01:53;3.22;;;1.20;;
55684;SDS011;41883;49.544;8.646;2022-08-03T08:04:20;1.90;;;1.08;;
55684;SDS011;41883;49.544;8.646;2022-08-03T08:06:47;1.90;;;1.10;;
55684;SDS011;41883;49.544;8.646;2022-08-03T08:09:13;2.50;;;1.33;;
55684;SDS011;41883;49.544;8.646;2022-08-03T08:11:40;1.77;;;1.20;;
55684;SDS011;41883;49.544;8.646;2022-08-03T08:14:07;2.65;;;1.30;;
55684;SDS011;41883;49.544;8.646;2022-08-03T08:16:34;1.63;;;1.10;;
55684;SDS011;41883;49.544;8.646;2022-08-03T08:19:00;1.40;;;0.90;;
55684;SDS011;41883;49.544;8.646;2022-08-03T08:21:26;1.83;;;1.10;;
55684;SDS011;41883;49.544;8.646;2022-08-03T08:23:53;2.22;;;1.20;;
55684;SDS011;41883;49.544;8.646;2022-08-03T08:26:20;2.95;;;1.45;;
55684;SDS011;41883;49.544;8.646;2022-08-03T08:28:46;2.25;;;1.10;;
55684;SDS011;41883;49.544;8.646;2022-08-03T08:31:12;3.50;;;1.40;;
55684;SDS011;41883;49.544;8.646;2022-08-03T08:33:37;2.08;;;1.33;;
55684;SDS011;41883;49.544;8.646;2022-08-03T08:36:04;2.05;;;1.25;;
55684;SDS011;41883;49.544;8.646;2022-08-03T08:38:30;2.53;;;1.40;;
55684;SDS011;41883;49.544;8.646;2022-08-03T08:40:56;1.33;;;1.00;;
55684;SDS011;41883;49.544;8.646;2022-08-03T08:43:23;3.58;;;1.10;;
55684;SDS011;41883;49.544;8.646;2022-08-03T08:45:52;2.60;;;1.20;;
55684;SDS011;41883;49.544;8.646;2022-08-03T08:48:23;2.40;;;1.20;;
55684;SDS011;41883;49.544;8.646;2022-08-03T08:50:52;2.28;;;0.90;;
55684;SDS011;41883;49.544;8.646;2022-08-03T08:53:20;1.15;;;0.90;;
55684;SDS011;41883;49.544;8.646;2022-08-03T08:55:46;2.30;;;1.10;;
55684;SDS011;41883;49.544;8.646;2022-08-03T08:58:14;1.60;;;1.00;;
55684;SDS011;41883;49.544;8.646;2022-08-03T09:00:43;1.60;;;0.90;;
55684;SDS011;41883;49.544;8.646;2022-08-03T09:03:13;2.10;;;1.20;;
55684;SDS011;41883;49.544;8.646;2022-08-03T09:05:43;1.85;;;0.82;;
55684;SDS011;41883;49.544;8.646;2022-08-03T09:08:09;1.83;;;1.05;;
55684;SDS011;41883;49.544;8.646;2022-08-03T09:10:35;1.95;;;1.10;;
55684;SDS011;41883;49.544;8.646;2022-08-03T09:13:03;2.25;;;1.10;;
55684;SDS011;41883;49.544;8.646;2022-08-03T09:15:30;2.47;;;1.02;;
55684;SDS011;41883;49.544;8.646;2022-08-03T09:17:58;1.27;;;0.90;;
55684;SDS011;41883;49.544;8.646;2022-08-03T09:20:26;2.15;;;0.93;;
55684;SDS011;41883;49.544;8.646;2022-08-03T09:22:57;2.13;;;1.20;;
55684;SDS011;41883;49.544;8.646;2022-08-03T09:25:27;1.38;;;0.90;;
55684;SDS011;41883;49.544;8.646;2022-08-03T09:30:41;1.25;;;0.98;;
55684;SDS011;41883;49.544;8.646;2022-08-03T09:33:09;2.03;;;1.05;;
55684;SDS011;41883;49.544;8.646;2022-08-03T09:38:14;1.70;;;0.90;;
55684;SDS011;41883;49.544;8.646;2022-08-03T09:40:48;2.95;;;1.10;;
55684;SDS011;41883;49.544;8.646;2022-08-03T09:43:15;3.13;;;1.08;;
55684;SDS011;41883;49.544;8.646;2022-08-03T09:45:41;1.85;;;1.10;;
55684;SDS011;41883;49.544;8.646;2022-08-03T09:48:21;1.30;;;0.90;;
55684;SDS011;41883;49.544;8.646;2022-08-03T09:50:55;1.85;;;0.90;;
55684;SDS011;41883;49.544;8.646;2022-08-03T09:53:23;1.20;;;0.80;;
55684;SDS011;41883;49.544;8.646;2022-08-03T09:58:22;1.50;;;1.10;;
55684;SDS011;41883;49.544;8.646;2022-08-03T10:03:21;1.58;;;0.90;;
55684;SDS011;41883;49.544;8.646;2022-08-03T10:05:48;1.20;;;0.90;;
55684;SDS011;41883;49.544;8.646;2022-08-03T10:08:16;1.60;;;1.00;;
55684;SDS011;41883;49.544;8.646;2022-08-03T10:10:45;1.10;;;0.80;;
55684;SDS011;41883;49.544;8.646;2022-08-03T10:13:13;1.55;;;1.10;;
55684;SDS011;41883;49.544;8.646;2022-08-03T10:15:40;1.15;;;0.90;;
55684;SDS011;41883;49.544;8.646;2022-08-03T10:18:07;0.88;;;0.68;;
55684;SDS011;41883;49.544;8.646;2022-08-03T10:20:35;1.77;;;1.00;;
55684;SDS011;41883;49.544;8.646;2022-08-03T10:23:04;2.35;;;1.05;;
55684;SDS011;41883;49.544;8.646;2022-08-03T10:25:33;1.88;;;0.90;;
55684;SDS011;41883;49.544;8.646;2022-08-03T10:28:02;1.88;;;1.10;;
55684;SDS011;41883;49.544;8.646;2022-08-03T10:30:31;1.55;;;1.00;;
55684;SDS011;41883;49.544;8.646;2022-08-03T10:33:01;2.08;;;1.10;;
55684;SDS011;41883;49.544;8.646;2022-08-03T10:35:51;2.15;;;1.00;;
55684;SDS011;41883;49.544;8.646;2022-08-03T10:38:22;2.10;;;1.00;;
55684;SDS011;41883;49.544;8.646;2022-08-03T10:40:53;3.08;;;1.00;;
55684;SDS011;41883;49.544;8.646;2022-08-03T10:43:21;1.80;;;1.02;;
55684;SDS011;41883;49.544;8.646;2022-08-03T10:46:06;2.58;;;1.20;;
55684;SDS011;41883;49.544;8.646;2022-08-03T10:48:33;2.45;;;1.17;;
55684;SDS011;41883;49.544;8.646;2022-08-03T10:51:00;2.20;;;0.90;;
55684;SDS011;41883;49.544;8.646;2022-08-03T10:53:34;1.95;;;1.08;;
55684;SDS011;41883;49.544;8.646;2022-08-03T10:56:25;1.55;;;1.00;;
55684;SDS011;41883;49.544;8.646;2022-08-03T10:59:17;1.38;;;1.00;;
55684;SDS011;41883;49.544;8.646;2022-08-03T11:01:49;2.05;;;1.10;;
55684;SDS011;41883;49.544;8.646;2022-08-03T11:04:21;1.95;;;1.10;;
55684;SDS011;41883;49.544;8.646;2022-08-03T11:09:41;3.08;;;1.00;;
55684;SDS011;41883;49.544;8.646;2022-08-03T11:12:28;1.58;;;0.90;;
55684;SDS011;41883;49.544;8.646;2022-08-03T11:14:56;1.33;;;1.02;;
55684;SDS011;41883;49.544;8.646;2022-08-03T11:17:31;1.60;;;1.10;;
55684;SDS011;41883;49.544;8.646;2022-08-03T11:19:58;1.20;;;1.00;;
55684;SDS011;41883;49.544;8.646;2022-08-03T11:22:24;1.45;;;1.10;;
55684;SDS011;41883;49.544;8.646;2022-08-03T11:25:10;2.08;;;0.90;;
55684;SDS011;41883;49.544;8.646;2022-08-03T11:27:38;1.70;;;1.00;;
55684;SDS011;41883;49.544;8.646;2022-08-03T11:30:06;1.73;;;1.00;;
55684;SDS011;41883;49.544;8.646;2022-08-03T11:46:22;1.50;;;0.90;;
55684;SDS011;41883;49.544;8.646;2022-08-03T11:48:42;1.23;;;0.80;;
55684;SDS011;41883;49.544;8.646;2022-08-03T11:51:23;1.00;;;0.70;;
55684;SDS011;41883;49.544;8.646;2022-08-03T11:54:00;0.90;;;0.80;;
55684;SDS011;41883;49.544;8.646;2022-08-03T11:56:28;1.13;;;0.80;;
55684;SDS011;41883;49.544;8.646;2022-08-03T11:59:16;1.02;;;0.80;;
55684;SDS011;41883;49.544;8.646;2022-08-03T12:01:42;1.42;;;0.85;;
55684;SDS011;41883;49.544;8.646;2022-08-03T12:04:10;2.08;;;1.05;;
55684;SDS011;41883;49.544;8.646;2022-08-03T12:06:36;1.90;;;0.90;;
55684;SDS011;41883;49.544;8.646;2022-08-03T12:09:20;1.42;;;0.88;;
55684;SDS011;41883;49.544;8.646;2022-08-03T12:11:49;1.75;;;0.95;;
55684;SDS011;41883;49.544;8.646;2022-08-03T12:14:16;2.72;;;1.00;;
55684;SDS011;41883;49.544;8.646;2022-08-03T12:16:47;1.63;;;0.80;;
55684;SDS011;41883;49.544;8.646;2022-08-03T12:19:13;1.63;;;0.80;;
55684;SDS011;41883;49.544;8.646;2022-08-03T12:21:46;1.33;;;0.80;;
55684;SDS011;41883;49.544;8.646;2022-08-03T12:24:14;1.50;;;1.00;;
55684;SDS011;41883;49.544;8.646;2022-08-03T12:26:45;1.48;;;1.00;;
55684;SDS011;41883;49.544;8.646;2022-08-03T12:29:16;2.95;;;1.10;;
55684;SDS011;41883;49.544;8.646;2022-08-03T12:31:46;2.28;;;0.90;;
55684;SDS011;41883;49.544;8.646;2022-08-03T12:34:13;3.72;;;1.25;;
55684;SDS011;41883;49.544;8.646;2022-08-03T12:36:52;1.92;;;0.93;;
55684;SDS011;41883;49.544;8.646;2022-08-03T12:39:24;1.83;;;0.80;;
55684;SDS011;41883;49.544;8.646;2022-08-03T12:41:54;2.22;;;1.10;;
55684;SDS011;41883;49.544;8.646;2022-08-03T12:44:30;0.93;;;0.80;;
55684;SDS011;41883;49.544;8.646;2022-08-03T12:46:59;1.98;;;1.00;;
55684;SDS011;41883;49.544;8.646;2022-08-03T12:49:28;5.13;;;1.10;;
55684;SDS011;41883;49.544;8.646;2022-08-03T12:52:09;2.28;;;1.05;;
55684;SDS011;41883;49.544;8.646;2022-08-03T12:54:35;1.30;;;1.00;;
55684;SDS011;41883;49.544;8.646;2022-08-03T12:57:05;2.60;;;1.10;;
55684;SDS011;41883;49.544;8.646;2022-08-03T12:59:33;1.23;;;0.90;;
55684;SDS011;41883;49.544;8.646;2022-08-03T13:02:27;1.38;;;1.00;;
55684;SDS011;41883;49.544;8.646;2022-08-03T13:04:53;2.00;;;1.10;;
55684;SDS011;41883;49.544;8.646;2022-08-03T13:07:20;2.03;;;1.02;;
55684;SDS011;41883;49.544;8.646;2022-08-03T13:09:50;1.33;;;0.90;;
55684;SDS011;41883;49.544;8.646;2022-08-03T13:12:21;4.65;;;1.10;;
55684;SDS011;41883;49.544;8.646;2022-08-03T13:14:53;2.65;;;1.00;;
55684;SDS011;41883;49.544;8.646;2022-08-03T13:17:21;2.38;;;1.23;;
55684;SDS011;41883;49.544;8.646;2022-08-03T13:19:48;2.72;;;1.10;;
55684;SDS011;41883;49.544;8.646;2022-08-03T13:22:17;3.25;;;1.10;;
55684;SDS011;41883;49.544;8.646;2022-08-03T13:24:45;1.67;;;1.10;;
55684;SDS011;41883;49.544;8.646;2022-08-03T13:27:14;2.33;;;1.17;;
55684;SDS011;41883;49.544;8.646;2022-08-03T13:29:40;1.42;;;0.98;;
55684;SDS011;41883;49.544;8.646;2022-08-03T13:32:07;2.00;;;0.90;;
55684;SDS011;41883;49.544;8.646;2022-08-03T13:34:34;1.58;;;1.00;;
55684;SDS011;41883;49.544;8.646;2022-08-03T13:37:00;2.90;;;1.20;;
55684;SDS011;41883;49.544;8.646;2022-08-03T13:39:27;1.23;;;1.10;;
55684;SDS011;41883;49.544;8.646;2022-08-03T13:41:53;1.63;;;1.10;;
55684;SDS011;41883;49.544;8.646;2022-08-03T13:44:20;3.08;;;1.30;;
55684;SDS011;41883;49.544;8.646;2022-08-03T13:46:47;2.25;;;1.50;;
55684;SDS011;41883;49.544;8.646;2022-08-03T13:49:13;2.45;;;1.08;;
55684;SDS011;41883;49.544;8.646;2022-08-03T13:51:40;1.80;;;1.30;;
55684;SDS011;41883;49.544;8.646;2022-08-03T13:54:06;1.80;;;1.10;;
55684;SDS011;41883;49.544;8.646;2022-08-03T13:56:33;1.90;;;1.40;;
55684;SDS011;41883;49.544;8.646;2022-08-03T13:58:59;2.58;;;1.23;;
55684;SDS011;41883;49.544;8.646;2022-08-03T14:01:25;2.30;;;1.30;;
55684;SDS011;41883;49.544;8.646;2022-08-03T14:03:52;1.50;;;1.00;;
55684;SDS011;41883;49.544;8.646;2022-08-03T14:06:22;1.38;;;1.02;;
55684;SDS011;41883;49.544;8.646;2022-08-03T14:08:50;2.00;;;1.30;;
55684;SDS011;41883;49.544;8.646;2022-08-03T14:11:16;1.58;;;1.10;;
55684;SDS011;41883;49.544;8.646;2022-08-03T14:13:42;3.90;;;1.15;;
55684;SDS011;41883;49.544;8.646;2022-08-03T14:16:09;1.15;;;0.98;;
55684;SDS011;41883;49.544;8.646;2022-08-03T14:18:38;2.05;;;1.20;;
55684;SDS011;41883;49.544;8.646;2022-08-03T14:21:04;1.13;;;1.00;;
55684;SDS011;41883;49.544;8.646;2022-08-03T14:23:31;1.50;;;1.02;;
55684;SDS011;41883;49.544;8.646;2022-08-03T14:25:57;1.85;;;1.17;;
55684;SDS011;41883;49.544;8.646;2022-08-03T14:28:24;3.42;;;1.35;;
55684;SDS011;41883;49.544;8.646;2022-08-03T14:30:51;1.77;;;1.00;;
55684;SDS011;41883;49.544;8.646;2022-08-03T14:33:20;1.83;;;1.00;;
55684;SDS011;41883;49.544;8.646;2022-08-03T14:35:48;2.42;;;1.10;;
55684;SDS011;41883;49.544;8.646;2022-08-03T14:38:14;1.33;;;1.08;;
55684;SDS011;41883;49.544;8.646;2022-08-03T14:40:42;1.92;;;0.90;;
55684;SDS011;41883;49.544;8.646;2022-08-03T14:43:10;1.88;;;0.93;;
55684;SDS011;41883;49.544;8.646;2022-08-03T14:45:37;1.80;;;1.15;;
55684;SDS011;41883;49.544;8.646;2022-08-03T14:48:04;2.13;;;1.20;;
55684;SDS011;41883;49.544;8.646;2022-08-03T14:50:30;1.48;;;1.00;;
55684;SDS011;41883;49.544;8.646;2022-08-03T14:52:56;1.85;;;1.20;;
55684;SDS011;41883;49.544;8.646;2022-08-03T14:55:23;2.05;;;1.17;;
55684;SDS011;41883;49.544;8.646;2022-08-03T14:57:49;2.23;;;1.17;;
55684;SDS011;41883;49.544;8.646;2022-08-03T15:00:20;2.10;;;1.10;;
55684;SDS011;41883;49.544;8.646;2022-08-03T15:02:46;2.08;;;1.00;;
55684;SDS011;41883;49.544;8.646;2022-08-03T15:05:13;2.08;;;1.20;;
55684;SDS011;41883;49.544;8.646;2022-08-03T15:07:41;1.52;;;1.20;;
55684;SDS011;41883;49.544;8.646;2022-08-03T15:10:07;2.25;;;1.08;;
55684;SDS011;41883;49.544;8.646;2022-08-03T15:12:33;1.30;;;1.08;;
55684;SDS011;41883;49.544;8.646;2022-08-03T15:14:59;2.22;;;1.15;;
55684;SDS011;41883;49.544;8.646;2022-08-03T15:17:26;1.30;;;1.00;;
55684;SDS011;41883;49.544;8.646;2022-08-03T15:19:53;1.63;;;1.00;;
55684;SDS011;41883;49.544;8.646;2022-08-03T15:22:19;1.35;;;0.95;;
55684;SDS011;41883;49.544;8.646;2022-08-03T15:24:45;4.72;;;1.38;;
55684;SDS011;41883;49.544;8.646;2022-08-03T15:27:12;1.55;;;0.98;;
55684;SDS011;41883;49.544;8.646;2022-08-03T15:29:38;1.40;;;1.00;;
55684;SDS011;41883;49.544;8.646;2022-08-03T15:32:04;1.73;;;1.20;;
55684;SDS011;41883;49.544;8.646;2022-08-03T15:34:30;2.25;;;1.25;;
55684;SDS011;41883;49.544;8.646;2022-08-03T15:36:55;2.35;;;1.00;;
55684;SDS011;41883;49.544;8.646;2022-08-03T15:39:20;1.30;;;1.00;;
55684;SDS011;41883;49.544;8.646;2022-08-03T15:41:46;1.50;;;0.90;;
55684;SDS011;41883;49.544;8.646;2022-08-03T15:44:11;2.20;;;1.20;;
55684;SDS011;41883;49.544;8.646;2022-08-03T15:46:36;1.40;;;0.90;;
55684;SDS011;41883;49.544;8.646;2022-08-03T15:49:02;1.13;;;1.00;;
55684;SDS011;41883;49.544;8.646;2022-08-03T15:51:27;2.45;;;1.10;;